DAAT/TMR METAR and TAF weather

Enter ICAO airport designator
Station Type Date Time Source
DAAT METAR 2022/01/19 20:30 UTC NOAA

DAAT 192030Z VRB02KT CAVOK 11/M08 Q1026


Station Type Date Time Source
DAAT Decoded METAR 2022/01/19 20:30 UTC NOAA

Tamanrasset / Aguenna, Algeria (DAAT) 22-49N 005-28E
Jan 19, 2022 - 03:30 PM EST / 2022.01.19 2030 UTC
Wind: Variable at 2 MPH (2 KT):0
Visibility: greater than 7 mile(s):0
Temperature: 51 F (11 C)
Dew Point: 17 F (-8 C)
Relative Humidity: 25%
Pressure (altimeter): 30.30 in. Hg (1026 hPa)
ob: DAAT 192030Z VRB02KT CAVOK 11/M08 Q1026
cycle: 20

Station Type Date Time Source
DAAT TAF 2022/01/19 18:40 UTC NOAA

TAF DAAT 191700Z 1918/2018 08008KT CAVOK
BECMG 2011/2014 34010KT

Example: see airport list